Time;durP1;ratioP1;P1;durP2;ratioP2;P2;SDS_P1;SDS_P2;PMS_P1;PMS_P2;Temp;Humidity;BMP_temperature;BMP_pressure;BME280_temperature;BME280_humidity;BME280_pressure;Samples;Min_cycle;Max_cycle;Signal;HPM_P1;HPM_P2
2022/12/05 00:01:34;;;;;;;26.20;14.93;;;3.00;99.90;;;;;;5049978;28;20642;-72
2022/12/05 00:04:04;;;;;;;23.93;14.17;;;3.00;99.90;;;;;;5043046;28;20237;-72
2022/12/05 00:06:30;;;;;;;24.77;15.07;;;3.00;99.90;;;;;;5062343;28;20432;-72
2022/12/05 00:08:56;;;;;;;26.00;14.63;;;2.90;99.90;;;;;;5061021;28;20443;-72
2022/12/05 00:11:28;;;;;;;24.17;13.97;;;3.00;99.90;;;;;;5072553;28;20807;-72
2022/12/05 00:13:56;;;;;;;22.20;12.40;;;3.00;99.90;;;;;;5064939;28;20813;-72
2022/12/05 00:16:23;;;;;;;24.33;15.03;;;3.00;99.90;;;;;;5051678;28;20435;-72
2022/12/05 00:18:49;;;;;;;24.80;13.80;;;3.00;99.90;;;;;;5051219;28;20984;-72
2022/12/05 00:21:20;;;;;;;22.77;13.27;;;3.00;99.90;;;;;;5048025;28;20440;-72
2022/12/05 00:23:46;;;;;;;24.60;13.63;;;2.90;99.90;;;;;;5073193;28;20445;-72
2022/12/05 00:26:12;;;;;;;23.50;15.40;;;3.00;99.90;;;;;;5061092;28;20488;-72
2022/12/05 00:28:39;;;;;;;19.90;13.00;;;3.00;99.90;;;;;;5050768;28;20794;-72
2022/12/05 00:31:07;;;;;;;26.03;13.80;;;3.00;99.90;;;;;;5054664;28;20443;-72
2022/12/05 00:33:33;;;;;;;22.20;13.70;;;3.00;99.90;;;;;;5061525;28;20432;-72
2022/12/05 00:36:07;;;;;;;24.47;13.10;;;3.00;99.90;;;;;;5044964;28;20436;-72
2022/12/05 00:38:33;;;;;;;23.60;12.37;;;3.00;99.90;;;;;;5049390;28;20591;-72
2022/12/05 00:41:26;;;;;;;23.83;14.10;;;3.00;99.90;;;;;;5064866;28;20526;-72
2022/12/05 00:43:52;;;;;;;22.00;13.50;;;3.00;99.90;;;;;;5047334;28;20698;-72
2022/12/05 00:46:20;;;;;;;22.83;14.43;;;3.10;99.90;;;;;;5053753;28;20571;-72
2022/12/05 00:48:46;;;;;;;20.63;13.30;;;3.10;99.90;;;;;;5064794;28;20447;-72
2022/12/05 00:51:16;;;;;;;22.07;13.20;;;3.10;99.90;;;;;;5062243;28;20460;-72
2022/12/05 00:53:43;;;;;;;19.00;12.30;;;3.20;99.90;;;;;;5056651;28;20441;-72
2022/12/05 00:56:17;;;;;;;19.67;13.70;;;3.10;99.90;;;;;;5053671;28;20459;-72
2022/12/05 00:58:44;;;;;;;20.43;13.67;;;3.20;99.90;;;;;;5053997;28;20466;-72
2022/12/05 01:01:18;;;;;;;28.33;14.17;;;3.20;99.90;;;;;;5052200;28;20440;-72
2022/12/05 01:03:45;;;;;;;25.07;14.37;;;3.20;99.90;;;;;;5039326;28;20436;-72
2022/12/05 01:06:13;;;;;;;20.77;11.60;;;3.10;99.90;;;;;;5046828;28;20428;-72
2022/12/05 01:08:38;;;;;;;22.60;14.60;;;3.00;99.90;;;;;;5044624;28;20476;-72
2022/12/05 01:11:06;;;;;;;24.40;13.50;;;3.10;99.90;;;;;;5046316;28;20520;-72
2022/12/05 01:13:32;;;;;;;25.70;14.97;;;3.00;99.90;;;;;;5042081;28;20440;-72
2022/12/05 01:15:57;;;;;;;27.27;12.80;;;3.00;99.90;;;;;;5048880;28;20485;-72
2022/12/05 01:18:24;;;;;;;23.07;12.60;;;3.00;99.90;;;;;;5057292;28;21038;-72
2022/12/05 01:20:50;;;;;;;22.90;14.17;;;3.00;99.90;;;;;;5057607;28;20172;-72
2022/12/05 01:23:16;;;;;;;18.83;12.30;;;3.00;99.90;;;;;;5061586;28;20488;-72
2022/12/05 01:25:44;;;;;;;19.00;11.93;;;3.00;99.90;;;;;;5051823;28;20484;-72
2022/12/05 01:28:10;;;;;;;18.83;11.73;;;3.00;99.90;;;;;;5050774;28;20182;-72
2022/12/05 01:30:38;;;;;;;20.37;10.87;;;3.00;99.90;;;;;;5053580;28;20439;-72
2022/12/05 01:33:04;;;;;;;18.83;11.70;;;3.00;99.90;;;;;;5058352;28;20431;-72
2022/12/05 01:35:34;;;;;;;18.70;11.20;;;3.00;99.90;;;;;;5058681;28;20538;-72
2022/12/05 01:38:00;;;;;;;17.30;11.23;;;3.00;99.90;;;;;;5056626;28;20204;-72
2022/12/05 01:40:26;;;;;;;17.23;9.97;;;3.00;99.90;;;;;;5061525;28;20443;-72
2022/12/05 01:42:52;;;;;;;19.90;11.20;;;3.10;99.90;;;;;;5064200;28;20489;-72
2022/12/05 01:45:29;;;;;;;24.77;11.87;;;3.00;99.90;;;;;;5052076;28;20280;-72
2022/12/05 01:47:54;;;;;;;21.23;10.53;;;3.00;99.90;;;;;;5040026;28;20182;-72
2022/12/05 01:50:20;;;;;;;18.00;11.40;;;3.00;99.90;;;;;;5046684;28;20952;-72
2022/12/05 01:52:46;;;;;;;22.20;12.27;;;2.90;99.90;;;;;;5052078;28;20586;-72
2022/12/05 01:55:15;;;;;;;20.80;11.93;;;2.90;99.90;;;;;;5051292;28;20291;-71
2022/12/05 01:57:41;;;;;;;19.43;11.97;;;2.80;99.90;;;;;;5058434;28;20205;-71
2022/12/05 02:00:13;;;;;;;23.87;12.83;;;2.80;99.90;;;;;;5059216;28;20448;-72
2022/12/05 02:02:43;;;;;;;22.30;12.47;;;2.80;99.90;;;;;;5055750;28;20561;-72
2022/12/05 02:05:17;;;;;;;20.17;10.80;;;2.70;99.90;;;;;;5052784;28;20461;-72
2022/12/05 02:07:44;;;;;;;22.27;13.50;;;2.70;99.90;;;;;;5059930;28;20443;-72
2022/12/05 02:10:10;;;;;;;17.20;11.03;;;2.70;99.90;;;;;;5042037;28;20469;-72
2022/12/05 02:12:36;;;;;;;19.37;11.10;;;2.70;99.90;;;;;;5063698;28;20966;-72
2022/12/05 02:15:10;;;;;;;17.50;11.80;;;2.70;99.90;;;;;;5057846;28;20828;-72
2022/12/05 02:17:41;;;;;;;23.50;12.23;;;2.70;99.90;;;;;;5056726;28;20956;-72
2022/12/05 02:20:29;;;;;;;23.40;11.60;;;2.70;99.90;;;;;;5047746;28;20440;-72
2022/12/05 02:23:32;;;;;;;23.17;12.10;;;2.80;99.90;;;;;;5041211;28;20513;-72
2022/12/05 02:26:16;;;;;;;22.83;13.07;;;2.80;99.90;;;;;;5046587;28;20427;-72
2022/12/05 02:28:50;;;;;;;26.83;14.07;;;2.70;99.90;;;;;;5041202;28;20807;-72
2022/12/05 02:31:38;;;;;;;24.40;13.40;;;2.80;99.90;;;;;;5052362;28;20488;-72
2022/12/05 02:34:42;;;;;;;22.80;12.70;;;2.80;99.90;;;;;;5047447;28;20455;-72
2022/12/05 02:37:26;;;;;;;27.63;12.77;;;2.80;99.90;;;;;;5048943;28;20452;-72
2022/12/05 02:40:25;;;;;;;29.43;13.97;;;2.80;99.90;;;;;;5046061;28;20424;-72
2022/12/05 02:43:04;;;;;;;29.53;13.23;;;2.90;99.90;;;;;;5034337;28;20435;-72
2022/12/05 02:45:32;;;;;;;29.13;13.30;;;2.90;99.90;;;;;;5049217;28;20463;-72
2022/12/05 02:47:59;;;;;;;27.40;13.70;;;2.80;99.90;;;;;;5043863;28;20511;-72
2022/12/05 02:50:31;;;;;;;29.47;14.80;;;2.80;99.90;;;;;;5052450;28;20436;-72
2022/12/05 02:53:01;;;;;;;35.20;14.00;;;2.80;99.90;;;;;;5038927;28;20447;-72
2022/12/05 02:55:29;;;;;;;26.07;13.77;;;2.80;99.90;;;;;;5048138;28;20455;-72
2022/12/05 02:57:59;;;;;;;30.53;14.60;;;2.80;99.90;;;;;;5038201;28;20511;-72
2022/12/05 03:00:25;;;;;;;22.23;14.13;;;2.80;99.90;;;;;;5035338;28;20436;-72
2022/12/05 03:02:55;;;;;;;24.70;13.33;;;2.80;99.90;;;;;;5042168;28;20491;-72
2022/12/05 03:05:42;;;;;;;24.67;15.20;;;2.90;99.90;;;;;;5047576;28;20726;-72
2022/12/05 03:08:12;;;;;;;36.47;16.20;;;3.00;99.90;;;;;;5045985;28;20431;-72
2022/12/05 03:10:40;;;;;;;27.47;14.87;;;3.10;99.90;;;;;;5045037;28;20479;-72
2022/12/05 03:13:15;;;;;;;25.87;13.17;;;3.00;99.90;;;;;;5039661;28;20478;-72
2022/12/05 03:15:46;;;;;;;22.43;13.50;;;3.20;99.90;;;;;;5045330;28;20817;-72
2022/12/05 03:18:25;;;;;;;28.13;13.60;;;3.30;99.90;;;;;;5050295;28;20471;-72
2022/12/05 03:21:03;;;;;;;25.80;14.37;;;3.40;99.90;;;;;;5051475;28;20839;-72
2022/12/05 03:23:33;;;;;;;27.83;14.50;;;3.30;99.90;;;;;;5040398;28;20432;-72
2022/12/05 03:26:13;;;;;;;29.57;14.53;;;3.30;99.90;;;;;;5045611;28;20420;-72
2022/12/05 03:29:13;;;;;;;20.27;13.17;;;3.30;99.90;;;;;;5047887;28;20436;-72
2022/12/05 03:31:51;;;;;;;24.63;13.30;;;3.30;99.90;;;;;;5046365;28;20429;-72
2022/12/05 03:34:31;;;;;;;27.37;14.80;;;3.20;99.90;;;;;;5062767;28;20482;-72
2022/12/05 03:37:01;;;;;;;22.20;14.70;;;3.40;99.90;;;;;;5052156;28;20435;-72
2022/12/05 03:39:31;;;;;;;24.10;13.67;;;3.30;99.90;;;;;;5051708;28;20840;-72
2022/12/05 03:42:12;;;;;;;25.83;14.30;;;3.30;99.90;;;;;;5035960;28;20439;-72
2022/12/05 03:45:05;;;;;;;24.00;14.00;;;3.40;99.90;;;;;;5044029;28;20453;-72
2022/12/05 03:47:47;;;;;;;21.23;12.57;;;3.40;99.90;;;;;;5046964;28;20960;-72
2022/12/05 03:50:25;;;;;;;26.33;13.90;;;3.50;99.90;;;;;;5053354;28;20432;-72
2022/12/05 03:52:59;;;;;;;22.57;14.70;;;3.50;99.90;;;;;;5045159;28;20436;-72
2022/12/05 03:55:28;;;;;;;27.50;15.43;;;3.50;99.90;;;;;;5055341;28;20512;-72
2022/12/05 03:58:21;;;;;;;23.37;11.57;;;3.50;99.90;;;;;;5057385;28;20475;-72
2022/12/05 04:00:51;;;;;;;26.20;14.03;;;3.50;99.90;;;;;;5057731;28;20435;-72
2022/12/05 04:03:23;;;;;;;24.20;13.37;;;3.60;99.90;;;;;;5059219;28;20460;-72
2022/12/05 04:05:56;;;;;;;24.30;12.90;;;3.60;99.90;;;;;;5049471;28;20956;-72
2022/12/05 04:08:30;;;;;;;24.07;14.00;;;3.70;99.90;;;;;;5065460;28;20438;-72
2022/12/05 04:11:00;;;;;;;25.10;12.60;;;3.70;99.90;;;;;;5058219;28;20454;-72
2022/12/05 04:13:46;;;;;;;21.93;12.80;;;3.70;99.90;;;;;;5057179;28;20435;-72
2022/12/05 04:19:26;;;;;;;20.87;12.87;;;3.60;99.90;;;;;;5054726;28;20501;-72
2022/12/05 04:21:54;;;;;;;26.80;14.23;;;3.50;99.90;;;;;;5044471;28;20436;-72
2022/12/05 04:27:20;;;;;;;22.27;13.20;;;3.50;99.90;;;;;;5042123;28;21007;-72
2022/12/05 04:29:59;;;;;;;21.90;12.97;;;3.50;99.90;;;;;;5043063;28;20846;-72
2022/12/05 04:32:29;;;;;;;20.70;11.60;;;3.50;99.90;;;;;;5040385;28;20522;-72
2022/12/05 04:35:00;;;;;;;21.63;13.00;;;3.60;99.90;;;;;;5047236;28;20957;-72
2022/12/05 04:37:30;;;;;;;19.30;12.23;;;3.60;99.90;;;;;;5041821;28;20452;-72
2022/12/05 04:40:05;;;;;;;20.67;12.50;;;3.60;99.90;;;;;;5045707;28;20437;-72
2022/12/05 04:42:33;;;;;;;23.43;13.67;;;3.60;99.90;;;;;;5045403;28;20438;-72
2022/12/05 04:45:03;;;;;;;21.83;13.60;;;3.60;99.90;;;;;;5053651;28;20484;-72
2022/12/05 04:47:34;;;;;;;19.63;12.00;;;3.60;99.90;;;;;;5039498;28;20799;-72
2022/12/05 04:50:01;;;;;;;18.83;11.93;;;3.70;99.90;;;;;;5048991;28;20443;-72
2022/12/05 04:52:28;;;;;;;23.30;13.10;;;3.70;99.90;;;;;;5042964;28;20967;-72
2022/12/05 04:55:19;;;;;;;16.77;11.70;;;3.80;99.90;;;;;;5046184;28;20464;-72
2022/12/05 04:58:04;;;;;;;19.47;11.87;;;3.70;99.90;;;;;;5046040;28;20471;-72
2022/12/05 05:00:34;;;;;;;22.20;12.83;;;3.80;99.90;;;;;;5041978;28;20438;-72
2022/12/05 05:03:07;;;;;;;21.93;12.27;;;3.70;99.90;;;;;;5045221;28;20427;-72
2022/12/05 05:05:34;;;;;;;16.97;11.27;;;3.60;99.90;;;;;;5050459;28;22017;-72
2022/12/05 05:08:00;;;;;;;27.60;14.63;;;3.60;99.90;;;;;;5046939;28;20477;-72
2022/12/05 05:10:44;;;;;;;17.77;12.30;;;3.60;99.90;;;;;;5045436;28;20907;-72
2022/12/05 05:13:09;;;;;;;22.27;13.13;;;3.60;99.90;;;;;;5046852;28;20559;-72
2022/12/05 05:15:35;;;;;;;20.37;12.57;;;3.70;99.90;;;;;;5040012;28;20470;-71
2022/12/05 05:18:00;;;;;;;20.80;12.67;;;3.70;99.90;;;;;;5035258;28;20217;-71
2022/12/05 05:20:26;;;;;;;17.57;10.40;;;3.80;99.90;;;;;;5051249;28;20173;-71
2022/12/05 05:22:56;;;;;;;18.83;11.90;;;3.80;99.90;;;;;;5043341;28;20174;-71
2022/12/05 05:25:24;;;;;;;16.90;11.57;;;3.80;99.90;;;;;;5048157;28;20193;-71
2022/12/05 05:27:51;;;;;;;22.20;11.60;;;3.70;99.90;;;;;;5051085;28;20439;-71
2022/12/05 05:30:18;;;;;;;20.10;11.70;;;3.60;99.90;;;;;;5045302;28;20432;-71
2022/12/05 05:32:43;;;;;;;20.37;11.77;;;3.50;99.90;;;;;;5042842;28;20440;-71
2022/12/05 05:35:10;;;;;;;24.00;15.37;;;3.40;99.90;;;;;;5043558;28;20457;-71
2022/12/05 05:37:36;;;;;;;25.13;12.80;;;3.40;99.90;;;;;;5042267;28;20189;-71
2022/12/05 05:40:01;;;;;;;17.20;13.50;;;3.50;99.90;;;;;;5053142;28;20435;-71
2022/12/05 05:42:27;;;;;;;19.93;12.50;;;3.80;99.90;;;;;;5046346;28;20174;-71
2022/12/05 05:44:52;;;;;;;20.90;13.77;;;3.60;99.90;;;;;;5044342;28;20205;-72
2022/12/05 05:47:18;;;;;;;19.47;13.40;;;3.60;99.90;;;;;;5046527;28;20224;-72
2022/12/05 05:49:43;;;;;;;26.60;12.70;;;3.60;99.90;;;;;;5046592;28;20227;-72
2022/12/05 05:52:09;;;;;;;21.27;13.40;;;3.50;99.90;;;;;;5043680;28;20243;-71
2022/12/05 05:54:35;;;;;;;22.23;13.03;;;3.70;99.90;;;;;;5042293;28;20290;-71
2022/12/05 05:57:00;;;;;;;20.67;12.77;;;3.60;99.90;;;;;;5036029;28;20196;-71
2022/12/05 05:59:26;;;;;;;21.90;13.90;;;3.50;99.90;;;;;;5042267;28;20181;-71
2022/12/05 06:01:51;;;;;;;18.30;11.90;;;3.50;99.90;;;;;;5046095;28;20647;-71
2022/12/05 06:04:17;;;;;;;22.37;14.03;;;3.60;99.90;;;;;;5042162;28;20197;-71
2022/12/05 06:06:42;;;;;;;21.90;14.13;;;3.60;99.90;;;;;;5047457;28;20256;-71
2022/12/05 06:09:08;;;;;;;21.33;12.70;;;3.50;99.90;;;;;;5044299;28;20196;-71
2022/12/05 06:11:34;;;;;;;20.30;12.33;;;3.40;99.90;;;;;;5042282;28;20243;-71
2022/12/05 06:14:00;;;;;;;23.73;13.20;;;3.50;99.90;;;;;;5050346;28;20212;-71
2022/12/05 06:16:27;;;;;;;21.50;12.40;;;3.50;99.90;;;;;;5042920;28;20432;-71
2022/12/05 06:18:53;;;;;;;22.73;13.10;;;3.50;99.90;;;;;;5041865;28;20471;-72
2022/12/05 06:21:18;;;;;;;20.30;12.47;;;3.50;99.90;;;;;;5044258;28;20813;-71
2022/12/05 06:23:44;;;;;;;23.13;13.23;;;3.50;99.90;;;;;;5043772;28;20524;-71
2022/12/05 06:26:12;;;;;;;21.17;13.40;;;3.60;99.90;;;;;;5050321;28;20166;-71
2022/12/05 06:28:38;;;;;;;27.57;14.20;;;3.50;99.90;;;;;;5044279;28;20489;-71
2022/12/05 06:31:09;;;;;;;26.27;13.70;;;3.30;99.90;;;;;;5047052;28;20436;-71
2022/12/05 06:33:34;;;;;;;20.83;13.00;;;3.20;99.90;;;;;;5051337;28;20185;-71
2022/12/05 06:36:08;;;;;;;25.50;14.07;;;3.20;99.90;;;;;;5050085;28;20876;-71
2022/12/05 06:38:34;;;;;;;27.17;14.10;;;3.20;99.90;;;;;;5040916;28;20200;-71
2022/12/05 06:41:07;;;;;;;21.43;13.10;;;3.10;99.90;;;;;;5041096;28;21020;-71
2022/12/05 06:43:32;;;;;;;22.00;13.57;;;3.20;99.90;;;;;;5049656;28;20173;-71
2022/12/05 06:45:58;;;;;;;21.07;14.20;;;3.20;99.90;;;;;;5045229;28;20442;-71
2022/12/05 06:48:24;;;;;;;26.13;15.20;;;3.20;99.90;;;;;;5049246;28;20174;-71
2022/12/05 06:50:51;;;;;;;20.27;13.53;;;3.20;99.90;;;;;;5054047;28;20246;-71
2022/12/05 06:53:18;;;;;;;20.40;14.53;;;3.30;99.90;;;;;;5054009;28;20184;-71
2022/12/05 06:55:44;;;;;;;23.00;13.33;;;3.40;99.90;;;;;;5060258;28;20790;-71
2022/12/05 06:58:09;;;;;;;22.40;13.60;;;3.40;99.90;;;;;;5049957;28;20459;-71
2022/12/05 07:03:19;;;;;;;24.80;13.90;;;3.60;99.90;;;;;;5061399;28;20191;-71
2022/12/05 07:05:44;;;;;;;22.67;13.80;;;3.60;99.90;;;;;;5060753;28;20538;-71
2022/12/05 07:08:10;;;;;;;21.50;13.97;;;3.80;99.90;;;;;;5059179;28;20181;-72
2022/12/05 07:10:35;;;;;;;26.30;13.67;;;3.90;99.90;;;;;;5050669;28;20212;-71
2022/12/05 07:13:01;;;;;;;18.77;12.13;;;4.00;99.90;;;;;;5052706;28;20832;-71
2022/12/05 07:15:26;;;;;;;17.70;12.73;;;3.90;99.90;;;;;;5063678;28;20284;-71
2022/12/05 07:17:52;;;;;;;22.50;16.00;;;4.00;99.90;;;;;;5059149;28;20207;-71
2022/12/05 07:20:18;;;;;;;22.97;14.60;;;3.80;99.90;;;;;;5057559;28;20213;-72
2022/12/05 07:22:44;;;;;;;21.23;14.80;;;3.80;99.90;;;;;;5056889;28;20186;-71
2022/12/05 07:25:10;;;;;;;18.00;13.07;;;3.80;99.90;;;;;;5051942;28;20247;-71
2022/12/05 07:27:35;;;;;;;22.17;13.47;;;3.80;99.90;;;;;;5046405;28;20520;-72
2022/12/05 07:30:01;;;;;;;22.77;15.07;;;3.90;99.90;;;;;;5052564;28;20308;-71
2022/12/05 07:32:31;;;;;;;21.13;14.17;;;4.00;99.90;;;;;;5058332;28;20236;-71
2022/12/05 07:34:57;;;;;;;17.87;11.80;;;4.00;99.90;;;;;;5045615;28;20209;-71
2022/12/05 07:37:22;;;;;;;17.07;11.70;;;3.90;99.90;;;;;;5049485;28;21004;-71
2022/12/05 07:39:49;;;;;;;18.00;14.00;;;4.00;99.90;;;;;;5039855;28;20225;-71
2022/12/05 07:42:14;;;;;;;13.00;9.90;;;4.00;99.90;;;;;;5039244;28;20185;-71
2022/12/05 07:44:39;;;;;;;15.90;11.23;;;4.10;99.90;;;;;;5041544;28;20457;-71
2022/12/05 07:47:05;;;;;;;19.63;12.07;;;4.20;99.90;;;;;;5045701;28;20601;-72
2022/12/05 07:49:31;;;;;;;15.83;10.90;;;4.30;99.90;;;;;;5035759;28;20235;-72
2022/12/05 07:51:56;;;;;;;17.03;11.93;;;4.40;99.90;;;;;;5050792;28;20177;-70
2022/12/05 07:54:22;;;;;;;13.37;11.23;;;4.30;99.90;;;;;;5031319;28;20671;-70
2022/12/05 07:56:47;;;;;;;16.20;11.37;;;4.30;99.90;;;;;;5037434;28;20208;-70
2022/12/05 07:59:13;;;;;;;13.47;11.00;;;4.40;99.90;;;;;;5039237;28;20233;-70
2022/12/05 08:01:38;;;;;;;13.70;11.20;;;4.40;99.90;;;;;;5026980;28;20213;-70
2022/12/05 08:04:04;;;;;;;18.20;11.40;;;4.30;99.90;;;;;;5020660;28;20214;-70
2022/12/05 08:06:32;;;;;;;16.83;10.80;;;4.30;99.90;;;;;;5038150;28;20173;-70
2022/12/05 08:08:57;;;;;;;16.60;12.50;;;4.20;99.90;;;;;;5029682;28;20260;-70
2022/12/05 08:11:30;;;;;;;16.07;11.50;;;4.20;99.90;;;;;;5043520;28;20472;-70
2022/12/05 08:13:56;;;;;;;17.40;12.37;;;4.10;99.90;;;;;;5030012;28;20207;-70
2022/12/05 08:16:28;;;;;;;17.33;13.37;;;4.10;99.90;;;;;;5035705;28;20435;-70
2022/12/05 08:18:55;;;;;;;18.83;12.10;;;4.10;99.90;;;;;;5036796;28;20977;-70
2022/12/05 08:21:21;;;;;;;20.33;12.93;;;4.10;99.90;;;;;;5043053;28;20924;-70
2022/12/05 08:23:46;;;;;;;18.10;11.70;;;4.10;99.90;;;;;;5046334;28;20444;-70
2022/12/05 08:26:19;;;;;;;18.50;11.23;;;4.20;99.90;;;;;;5049025;28;20434;-70
2022/12/05 08:28:45;;;;;;;17.67;11.90;;;4.20;99.90;;;;;;5036026;28;20752;-70
2022/12/05 08:31:16;;;;;;;15.03;10.70;;;4.20;99.90;;;;;;5043486;28;20450;-71
2022/12/05 08:33:43;;;;;;;16.50;10.10;;;4.30;99.90;;;;;;5043039;28;20433;-70
2022/12/05 08:36:11;;;;;;;19.73;11.80;;;4.40;99.90;;;;;;5040533;28;20436;-69
2022/12/05 08:38:37;;;;;;;18.60;13.33;;;4.40;99.90;;;;;;5041271;28;20452;-70
2022/12/05 08:41:06;;;;;;;17.40;11.20;;;4.50;99.90;;;;;;5040988;28;20429;-70
2022/12/05 08:43:32;;;;;;;18.13;12.27;;;4.60;99.90;;;;;;5040318;28;20202;-70
2022/12/05 08:45:59;;;;;;;16.70;12.27;;;4.60;99.90;;;;;;5037186;28;20433;-70
2022/12/05 08:48:26;;;;;;;17.70;9.97;;;4.80;99.90;;;;;;5043903;28;20440;-70
2022/12/05 08:50:52;;;;;;;18.93;11.90;;;4.80;99.90;;;;;;5045409;28;20803;-70
2022/12/05 08:53:17;;;;;;;13.70;10.40;;;4.90;99.90;;;;;;5046058;28;20432;-69
2022/12/05 08:55:44;;;;;;;13.07;9.87;;;5.00;99.90;;;;;;5048835;28;20543;-70
2022/12/05 08:58:10;;;;;;;13.43;11.30;;;5.10;99.90;;;;;;5049723;28;20667;-70
2022/12/05 09:00:35;;;;;;;14.20;10.07;;;5.10;99.90;;;;;;5040731;28;20432;-70
2022/12/05 09:03:01;;;;;;;14.40;10.90;;;5.20;99.90;;;;;;5042552;28;20248;-69
2022/12/05 09:05:26;;;;;;;11.30;9.40;;;5.30;99.90;;;;;;5047621;28;20203;-70
2022/12/05 09:07:53;;;;;;;13.70;9.53;;;5.50;99.90;;;;;;5051054;28;20177;-70
2022/12/05 09:10:18;;;;;;;12.70;9.03;;;5.50;99.90;;;;;;5040934;28;20660;-70
2022/12/05 09:12:43;;;;;;;11.37;9.47;;;5.60;99.90;;;;;;5046356;28;20441;-70
2022/12/05 09:15:11;;;;;;;16.17;10.00;;;5.60;99.90;;;;;;5048434;28;20217;-70
2022/12/05 09:17:37;;;;;;;10.57;9.23;;;5.60;99.90;;;;;;5044550;28;20599;-70
2022/12/05 09:20:05;;;;;;;15.53;9.40;;;5.60;99.90;;;;;;5041012;28;20488;-70
2022/12/05 09:22:31;;;;;;;12.67;9.70;;;5.60;99.90;;;;;;5036361;28;20881;-70
2022/12/05 09:24:56;;;;;;;14.27;10.53;;;5.70;99.90;;;;;;5034301;28;20540;-70
2022/12/05 09:27:22;;;;;;;13.10;9.50;;;5.80;99.90;;;;;;5040168;28;20436;-70
2022/12/05 09:29:47;;;;;;;11.63;8.40;;;5.80;99.90;;;;;;5045465;28;20174;-69
2022/12/05 09:32:13;;;;;;;9.53;8.43;;;5.90;99.90;;;;;;5042639;28;20181;-69
2022/12/05 09:34:39;;;;;;;12.10;8.87;;;5.90;99.90;;;;;;5050085;28;20763;-69
2022/12/05 09:37:05;;;;;;;10.83;8.63;;;5.90;99.90;;;;;;5036119;28;20572;-69
2022/12/05 09:39:31;;;;;;;11.40;8.50;;;5.90;99.90;;;;;;5053259;28;20212;-69
2022/12/05 09:42:12;;;;;;;14.70;11.80;;;5.90;99.90;;;;;;5039651;28;20464;-69
2022/12/05 09:44:52;;;;;;;14.57;9.43;;;6.00;99.90;;;;;;5032135;28;20210;-69
2022/12/05 09:47:27;;;;;;;12.23;8.97;;;6.00;99.90;;;;;;5034814;28;20433;-69
2022/12/05 09:49:57;;;;;;;12.20;9.73;;;5.90;99.90;;;;;;5041294;28;21243;-69
2022/12/05 09:52:30;;;;;;;9.80;8.50;;;6.00;99.90;;;;;;5037447;28;20459;-69
2022/12/05 09:55:00;;;;;;;9.80;7.97;;;6.00;99.90;;;;;;5040532;28;20552;-69
2022/12/05 09:57:33;;;;;;;13.40;8.00;;;6.00;99.90;;;;;;5043426;28;20459;-69
2022/12/05 10:00:02;;;;;;;9.93;7.90;;;6.00;99.90;;;;;;5045499;28;20429;-69
2022/12/05 10:02:46;;;;;;;7.07;6.37;;;6.10;99.90;;;;;;5040174;28;20957;-69
2022/12/05 10:05:26;;;;;;;7.47;6.57;;;6.10;99.90;;;;;;5044702;28;20456;-69
2022/12/05 10:08:09;;;;;;;8.53;6.70;;;6.10;99.90;;;;;;5041915;28;20845;-69
2022/12/05 10:10:40;;;;;;;7.90;6.70;;;6.10;99.90;;;;;;5049820;28;20438;-69
2022/12/05 10:13:23;;;;;;;7.53;6.73;;;6.10;99.90;;;;;;5041563;28;20510;-69
2022/12/05 10:15:55;;;;;;;7.90;5.87;;;6.10;99.90;;;;;;5044376;28;20456;-69
2022/12/05 10:18:38;;;;;;;6.70;6.00;;;6.10;99.90;;;;;;5054306;28;20459;-69
2022/12/05 10:21:10;;;;;;;9.37;7.33;;;6.20;99.90;;;;;;5040179;28;20435;-69
2022/12/05 10:23:48;;;;;;;8.93;7.50;;;6.30;99.90;;;;;;5049109;28;20940;-69
2022/12/05 10:26:15;;;;;;;6.77;6.13;;;6.40;99.90;;;;;;5044014;28;20429;-69
2022/12/05 10:28:55;;;;;;;9.07;7.10;;;6.50;99.90;;;;;;5046681;28;20758;-69
2022/12/05 10:31:26;;;;;;;6.67;5.97;;;6.80;99.90;;;;;;5040120;28;20443;-69
2022/12/05 10:34:04;;;;;;;5.97;5.37;;;6.80;99.90;;;;;;5048180;28;20962;-69
2022/12/05 10:36:30;;;;;;;7.30;6.60;;;7.00;99.90;;;;;;5042170;28;20485;-69
2022/12/05 10:38:57;;;;;;;7.33;6.20;;;7.20;99.90;;;;;;5046278;28;20465;-69
2022/12/05 10:41:23;;;;;;;6.93;5.90;;;7.30;99.90;;;;;;5041935;28;20169;-69
2022/12/05 10:43:48;;;;;;;6.80;6.10;;;7.30;99.90;;;;;;5048850;28;20458;-69
2022/12/05 10:46:15;;;;;;;5.67;5.17;;;7.40;99.90;;;;;;5038400;28;20186;-69
2022/12/05 10:48:41;;;;;;;6.40;5.80;;;7.20;99.90;;;;;;5039614;28;20193;-69
2022/12/05 10:51:13;;;;;;;8.33;5.00;;;7.10;99.90;;;;;;5043204;28;20488;-71
2022/12/05 10:53:42;;;;;;;6.77;6.10;;;7.20;99.90;;;;;;5041967;28;20185;-69
2022/12/05 10:56:44;;;;;;;6.90;5.33;;;7.30;99.90;;;;;;5053026;28;20451;-69
2022/12/05 10:59:16;;;;;;;6.33;4.60;;;7.30;99.90;;;;;;5048308;28;20537;-69
2022/12/05 11:01:49;;;;;;;7.03;6.07;;;7.70;99.90;;;;;;5054146;28;20518;-69
2022/12/05 11:04:22;;;;;;;5.50;4.87;;;7.90;99.90;;;;;;5041413;28;21047;-69
2022/12/05 11:06:51;;;;;;;9.20;7.20;;;7.90;99.90;;;;;;5055326;28;20462;-69
2022/12/05 11:09:20;;;;;;;6.20;5.60;;;7.80;99.90;;;;;;5045233;28;20447;-71
2022/12/05 11:12:08;;;;;;;8.10;5.10;;;7.70;99.90;;;;;;5048840;28;20436;-70
2022/12/05 11:14:35;;;;;;;5.93;5.33;;;7.60;99.90;;;;;;5049333;28;20817;-69
2022/12/05 11:17:02;;;;;;;6.43;5.83;;;7.40;99.90;;;;;;5034409;28;20805;-70
2022/12/05 11:19:34;;;;;;;6.13;5.40;;;7.40;99.90;;;;;;5044608;28;20432;-70
2022/12/05 11:22:00;;;;;;;5.90;4.60;;;7.40;99.90;;;;;;5050586;28;20523;-70
2022/12/05 11:24:33;;;;;;;5.50;4.97;;;7.70;99.90;;;;;;5034911;28;20464;-71
2022/12/05 11:27:19;;;;;;;6.87;5.13;;;8.20;99.90;;;;;;5045542;28;20424;-71
2022/12/05 11:30:11;;;;;;;6.37;5.73;;;9.10;99.90;;;;;;5031265;28;20429;-71
2022/12/05 11:32:37;;;;;;;5.93;4.90;;;10.60;99.90;;;;;;5044523;28;20434;-71
2022/12/05 11:35:12;;;;;;;5.30;4.37;;;12.10;99.90;;;;;;5045624;28;20954;-71
2022/12/05 11:37:44;;;;;;;5.33;4.83;;;12.90;99.90;;;;;;5048499;28;20205;-72
2022/12/05 11:40:23;;;;;;;4.97;4.37;;;14.80;99.90;;;;;;5051333;28;20503;-70
2022/12/05 11:43:24;;;;;;;3.40;3.20;;;14.80;99.90;;;;;;5048409;28;20422;-72
2022/12/05 11:46:10;;;;;;;4.40;4.00;;;13.60;99.90;;;;;;5051247;28;20490;-71
2022/12/05 11:48:48;;;;;;;3.30;3.00;;;12.50;99.90;;;;;;5039673;28;20439;-69
2022/12/05 11:51:31;;;;;;;4.50;3.83;;;13.00;99.90;;;;;;5038820;28;20428;-70
2022/12/05 11:54:29;;;;;;;3.90;3.60;;;13.80;99.90;;;;;;5041452;28;20918;-69
2022/12/05 11:57:20;;;;;;;4.23;3.50;;;13.70;99.90;;;;;;5035930;28;20450;-67
2022/12/05 11:59:54;;;;;;;4.60;3.53;;;13.60;99.90;;;;;;5054365;28;20785;-68
2022/12/05 12:02:37;;;;;;;3.70;3.40;;;12.60;99.90;;;;;;5051095;28;20446;-70
2022/12/05 12:05:16;;;;;;;4.10;3.70;;;11.40;99.90;;;;;;5054901;28;20442;-70
2022/12/05 12:08:05;;;;;;;3.53;3.23;;;10.50;99.90;;;;;;5051093;28;20426;-69
2022/12/05 12:10:53;;;;;;;3.80;3.47;;;10.00;99.90;;;;;;5054659;28;20444;-67
2022/12/05 12:13:35;;;;;;;4.90;3.87;;;9.60;99.90;;;;;;5051140;28;20508;-71
2022/12/05 12:16:29;;;;;;;4.53;4.10;;;8.90;99.90;;;;;;5042639;28;20462;-71
2022/12/05 12:19:03;;;;;;;3.97;3.50;;;9.20;99.90;;;;;;5051971;28;20459;-70
2022/12/05 12:21:56;;;;;;;4.33;4.00;;;9.00;99.90;;;;;;5051661;28;20427;-70
2022/12/05 12:24:48;;;;;;;5.47;3.70;;;9.30;99.90;;;;;;5044917;28;20608;-70
2022/12/05 12:27:32;;;;;;;4.40;4.00;;;9.50;99.90;;;;;;5034586;28;20467;-70
2022/12/05 12:30:16;;;;;;;4.60;3.70;;;10.40;99.90;;;;;;5042934;28;20416;-70
2022/12/05 12:32:57;;;;;;;4.10;3.70;;;10.30;99.90;;;;;;5044127;28;20469;-71
2022/12/05 12:35:27;;;;;;;4.97;4.30;;;10.80;99.90;;;;;;5054169;28;20427;-71
2022/12/05 12:38:11;;;;;;;3.77;3.47;;;11.10;99.90;;;;;;5053922;28;20452;-70
2022/12/05 12:40:53;;;;;;;6.17;4.37;;;10.30;99.90;;;;;;5043238;28;20515;-70
2022/12/05 12:44:04;;;;;;;5.57;4.90;;;9.60;99.90;;;;;;5040620;28;20845;-71
2022/12/05 12:46:29;;;;;;;4.47;4.07;;;9.40;99.90;;;;;;5036705;28;20444;-71
2022/12/05 12:49:20;;;;;;;5.97;4.43;;;9.30;99.90;;;;;;5043490;28;20432;-71
2022/12/05 12:52:00;;;;;;;4.47;4.07;;;9.10;99.90;;;;;;5038506;28;20958;-70
2022/12/05 12:54:44;;;;;;;4.93;4.53;;;9.00;99.90;;;;;;5049873;28;20459;-69
2022/12/05 12:57:31;;;;;;;4.63;4.23;;;9.00;99.90;;;;;;5048280;28;20447;-71
2022/12/05 13:00:20;;;;;;;4.90;4.30;;;8.90;99.90;;;;;;5046906;28;20443;-71
2022/12/05 13:03:10;;;;;;;4.30;3.90;;;9.10;99.90;;;;;;5036430;28;20524;-71
2022/12/05 13:05:45;;;;;;;4.40;3.90;;;8.80;99.90;;;;;;5050428;28;20460;-71
2022/12/05 13:08:21;;;;;;;4.70;4.30;;;8.70;99.90;;;;;;5044747;28;20444;-70
2022/12/05 13:10:48;;;;;;;4.77;4.33;;;8.50;99.90;;;;;;5047957;28;20799;-70
2022/12/05 13:13:33;;;;;;;4.00;3.63;;;8.40;99.90;;;;;;5047347;28;21060;-71